Terminal Aerodrome Forecast
Issued by NWS Green Bay, WI

Home | Current Version | Previous Version | Text Only | Print | Product List | Glossary Off
Versions: 1 2 3 4 5 6 7 8 9 10 11 12 13 14 15 16 17 18 19 20 21 22 23 24 25 26 27 28 29 30 31 32 33 34 35 36 37 38 39 40 41 42 43 44 45 46 47 48 49 50

000
FTUS43 KGRB 250800 AAB
TAFGRB
TAF AMD
KGRB 250836Z 2509/2606 07007KT 2SM -FZRAPL SCT020 BKN040
     FM250930 10007KT 1SM -SN SCT009 OVC018
     FM251000 08003KT 1/2SM SN OVC005
      TEMPO 2510/2512 1/4SM +SN
     FM251300 09002KT 2SM -SN OVC004
     FM251500 26009KT P6SM OVC010
     FM251600 25012KT P6SM BKN015
     FM252000 24012G18KT P6SM SCT015 BKN070
     FM260100 26010KT P6SM BKN100=

USA.gov is the U.S. government's official web portal to all federal, state and local government web resources and services.